Time;durP1;ratioP1;P1;durP2;ratioP2;P2;SDS_P1;SDS_P2;PMS_P1;PMS_P2;Temp;Humidity;BMP_temperature;BMP_pressure;BME280_temperature;BME280_humidity;BME280_pressure;Samples;Min_cycle;Max_cycle;Signal;HPM_P1;HPM_P2
2022/09/10 00:00:53;;;;;;;4.90;2.60;;;15.40;99.90;;;;;;5074759;28;20456;-74
2022/09/10 00:03:21;;;;;;;3.97;2.47;;;15.40;99.90;;;;;;5074389;28;20457;-74
2022/09/10 00:05:48;;;;;;;3.90;2.43;;;15.50;99.90;;;;;;5074978;28;20449;-75
2022/09/10 00:08:16;;;;;;;4.00;3.00;;;15.40;99.90;;;;;;5073840;28;20494;-74
2022/09/10 00:10:44;;;;;;;5.07;4.13;;;15.50;99.90;;;;;;5074588;28;20514;-75
2022/09/10 00:13:12;;;;;;;3.00;2.70;;;15.20;99.90;;;;;;5074444;28;20606;-75
2022/09/10 00:15:40;;;;;;;5.00;2.60;;;15.40;99.90;;;;;;5074442;28;20437;-75
2022/09/10 00:18:08;;;;;;;9.10;2.80;;;15.30;99.90;;;;;;5074344;28;20447;-75
2022/09/10 00:20:42;;;;;;;3.77;3.33;;;15.30;99.90;;;;;;5074359;28;20499;-75
2022/09/10 00:23:09;;;;;;;2.80;2.60;;;15.30;99.90;;;;;;5074648;28;20461;-75
2022/09/10 00:25:35;;;;;;;3.40;3.10;;;15.30;99.90;;;;;;5074716;28;20452;-75
2022/09/10 00:28:02;;;;;;;3.10;2.60;;;15.30;99.90;;;;;;5075683;28;20423;-75
2022/09/10 00:30:29;;;;;;;2.97;2.70;;;15.30;99.90;;;;;;5074637;28;20444;-75
2022/09/10 00:32:56;;;;;;;4.60;2.80;;;15.20;99.90;;;;;;5074153;28;20468;-74
2022/09/10 00:35:23;;;;;;;3.00;2.30;;;15.20;99.90;;;;;;5073969;28;20487;-75
2022/09/10 00:37:51;;;;;;;3.50;3.17;;;15.20;99.90;;;;;;5073958;28;20540;-75
2022/09/10 00:40:18;;;;;;;3.97;2.90;;;15.20;99.90;;;;;;5074028;28;20536;-75
2022/09/10 00:42:45;;;;;;;3.53;3.30;;;15.10;99.90;;;;;;5073544;28;20472;-75
2022/09/10 00:45:17;;;;;;;2.90;2.70;;;15.00;99.90;;;;;;5073486;28;20448;-74
2022/09/10 00:47:45;;;;;;;3.43;2.93;;;14.90;99.90;;;;;;5073864;28;20486;-75
2022/09/10 00:50:17;;;;;;;3.77;3.43;;;14.90;99.90;;;;;;5073352;28;20989;-75
2022/09/10 00:52:46;;;;;;;3.37;3.07;;;14.90;99.90;;;;;;5073611;28;20461;-76
2022/09/10 00:55:15;;;;;;;4.60;3.73;;;15.00;99.90;;;;;;5073589;28;20579;-75
2022/09/10 00:57:44;;;;;;;6.13;3.57;;;14.90;99.90;;;;;;5073707;28;20444;-75
2022/09/10 01:00:13;;;;;;;4.30;3.40;;;15.00;99.90;;;;;;5073622;28;20455;-74
2022/09/10 01:02:40;;;;;;;3.97;3.57;;;15.00;99.90;;;;;;5073232;28;20555;-75
2022/09/10 01:05:09;;;;;;;6.00;3.67;;;15.00;99.90;;;;;;5073438;28;20449;-75
2022/09/10 01:07:36;;;;;;;3.17;2.90;;;14.90;99.90;;;;;;5072942;28;21008;-75
2022/09/10 01:10:07;;;;;;;4.30;3.87;;;14.90;99.90;;;;;;5073484;28;20506;-75
2022/09/10 01:12:59;;;;;;;4.93;4.40;;;14.90;99.90;;;;;;5073388;28;20601;-75
2022/09/10 01:15:32;;;;;;;5.07;4.43;;;14.90;99.90;;;;;;5070559;28;20555;-74
2022/09/10 01:18:11;;;;;;;4.53;3.60;;;14.80;99.90;;;;;;5073078;28;20429;-74
2022/09/10 01:21:08;;;;;;;3.67;3.37;;;14.80;99.90;;;;;;5073114;28;20474;-75
2022/09/10 01:24:11;;;;;;;3.33;3.00;;;14.80;99.90;;;;;;5072687;28;20522;-75
2022/09/10 01:27:02;;;;;;;3.10;2.80;;;14.80;99.90;;;;;;5073389;28;20523;-75
2022/09/10 01:29:37;;;;;;;3.77;3.40;;;14.80;99.90;;;;;;5073199;28;20431;-74
2022/09/10 01:32:14;;;;;;;4.63;3.10;;;14.70;99.90;;;;;;5072950;28;20967;-74
2022/09/10 01:34:45;;;;;;;3.60;3.30;;;14.80;99.90;;;;;;5073641;28;20468;-74
2022/09/10 01:37:20;;;;;;;3.67;3.13;;;14.80;99.90;;;;;;5073229;28;20486;-76
2022/09/10 01:39:48;;;;;;;3.67;3.20;;;14.70;99.90;;;;;;5073253;28;20432;-74
2022/09/10 01:42:15;;;;;;;5.00;4.60;;;14.60;99.90;;;;;;5073033;28;20869;-75
2022/09/10 01:44:46;;;;;;;3.20;3.00;;;14.70;99.90;;;;;;5072987;28;20445;-76
2022/09/10 01:47:21;;;;;;;4.53;3.13;;;14.70;99.90;;;;;;5073289;28;20424;-75
2022/09/10 01:50:12;;;;;;;7.63;3.60;;;14.70;99.90;;;;;;5073226;28;20486;-75
2022/09/10 01:52:50;;;;;;;2.87;2.57;;;14.60;99.90;;;;;;5073093;28;20471;-75
2022/09/10 01:55:33;;;;;;;3.40;3.10;;;14.60;99.90;;;;;;5072732;28;20997;-75
2022/09/10 01:58:08;;;;;;;3.97;2.93;;;14.60;99.90;;;;;;5073020;28;20422;-76
2022/09/10 02:00:41;;;;;;;4.50;3.40;;;14.60;99.90;;;;;;5074298;28;20497;-75
2022/09/10 02:03:13;;;;;;;6.30;3.40;;;14.60;99.90;;;;;;5077155;28;20470;-75
2022/09/10 02:05:41;;;;;;;3.43;3.13;;;14.70;99.90;;;;;;5077322;28;20436;-75
2022/09/10 02:08:16;;;;;;;3.40;3.10;;;14.70;99.90;;;;;;5077486;28;20445;-75
2022/09/10 02:10:52;;;;;;;3.17;2.97;;;14.70;99.90;;;;;;5078356;28;20432;-75
2022/09/10 02:13:19;;;;;;;6.03;4.40;;;14.60;99.90;;;;;;5077871;28;20486;-75
2022/09/10 02:15:48;;;;;;;3.10;2.80;;;14.60;99.90;;;;;;5077448;28;20509;-74
2022/09/10 02:18:15;;;;;;;5.80;2.90;;;14.60;99.90;;;;;;5074179;28;20477;-74
2022/09/10 02:20:42;;;;;;;3.77;3.47;;;14.60;99.90;;;;;;5073405;28;20440;-75
2022/09/10 02:23:11;;;;;;;4.23;3.57;;;14.60;99.90;;;;;;5072814;28;20539;-75
2022/09/10 02:25:37;;;;;;;4.50;3.00;;;14.60;99.90;;;;;;5072666;28;20449;-75
2022/09/10 02:28:05;;;;;;;5.03;4.00;;;14.60;99.90;;;;;;5072809;28;20448;-75
2022/09/10 02:30:31;;;;;;;3.73;3.03;;;14.70;99.90;;;;;;5074094;28;20455;-74
2022/09/10 02:32:59;;;;;;;3.10;2.77;;;14.70;99.90;;;;;;5076502;28;20542;-75
2022/09/10 02:35:26;;;;;;;6.57;4.03;;;14.70;99.90;;;;;;5076293;28;20549;-74
2022/09/10 02:37:52;;;;;;;4.53;3.33;;;14.70;99.90;;;;;;5076218;28;20522;-74
2022/09/10 02:40:19;;;;;;;5.23;3.60;;;14.60;99.90;;;;;;5076319;28;20448;-74
2022/09/10 02:42:46;;;;;;;5.17;3.30;;;14.60;99.90;;;;;;5075848;28;20480;-74
2022/09/10 02:45:13;;;;;;;3.77;3.47;;;14.50;99.90;;;;;;5076232;28;20445;-75
2022/09/10 02:47:40;;;;;;;3.50;3.20;;;14.40;99.90;;;;;;5075871;28;20448;-74
2022/09/10 02:50:10;;;;;;;3.43;3.13;;;14.30;99.90;;;;;;5076008;28;20453;-75
2022/09/10 02:52:37;;;;;;;4.37;3.70;;;14.30;99.90;;;;;;5075886;28;20471;-74
2022/09/10 02:55:04;;;;;;;3.60;3.30;;;14.30;99.90;;;;;;5075879;28;20476;-74
2022/09/10 02:57:31;;;;;;;4.03;3.47;;;14.20;99.90;;;;;;5075810;28;20448;-75
2022/09/10 02:59:57;;;;;;;6.23;3.87;;;14.20;99.90;;;;;;5075768;28;20826;-75
2022/09/10 03:02:24;;;;;;;5.10;2.97;;;14.30;99.90;;;;;;5075455;28;20471;-74
2022/09/10 03:04:51;;;;;;;4.30;3.73;;;14.40;99.90;;;;;;5075697;28;20451;-74
2022/09/10 03:07:19;;;;;;;3.47;3.13;;;14.40;99.90;;;;;;5075600;28;20448;-74
2022/09/10 03:09:46;;;;;;;3.33;3.10;;;14.40;99.90;;;;;;5076188;28;20535;-74
2022/09/10 03:12:14;;;;;;;4.77;3.50;;;14.40;99.90;;;;;;5076448;28;20473;-74
2022/09/10 03:14:41;;;;;;;4.07;3.67;;;14.40;99.90;;;;;;5075776;28;20526;-74
2022/09/10 03:17:08;;;;;;;5.70;3.70;;;14.40;99.90;;;;;;5075428;28;20937;-74
2022/09/10 03:19:35;;;;;;;3.77;3.30;;;14.40;99.90;;;;;;5075766;28;20495;-75
2022/09/10 03:22:01;;;;;;;4.03;3.63;;;14.40;99.90;;;;;;5075491;28;20496;-75
2022/09/10 03:24:29;;;;;;;3.77;3.40;;;14.30;99.90;;;;;;5075322;28;20448;-75
2022/09/10 03:26:56;;;;;;;5.27;3.50;;;14.30;99.90;;;;;;5075512;28;20453;-74
2022/09/10 03:29:23;;;;;;;3.03;2.83;;;14.20;99.90;;;;;;5075606;28;20480;-74
2022/09/10 03:31:50;;;;;;;6.20;3.27;;;14.30;99.90;;;;;;5075291;28;20451;-75
2022/09/10 03:34:17;;;;;;;4.03;3.63;;;14.20;99.90;;;;;;5075241;28;20819;-74
2022/09/10 03:36:46;;;;;;;3.37;3.07;;;14.10;99.90;;;;;;5075086;28;20803;-74
2022/09/10 03:39:13;;;;;;;3.60;3.30;;;14.20;99.90;;;;;;5075045;28;20543;-75
2022/09/10 03:41:41;;;;;;;4.90;4.23;;;14.20;99.90;;;;;;5074726;28;20449;-75
2022/09/10 03:44:07;;;;;;;3.60;3.30;;;14.10;99.90;;;;;;5074656;28;20502;-75
2022/09/10 03:46:35;;;;;;;3.53;3.23;;;14.10;99.90;;;;;;5074569;28;21019;-75
2022/09/10 03:49:01;;;;;;;5.77;3.63;;;14.10;99.90;;;;;;5074594;28;20950;-75
2022/09/10 03:51:29;;;;;;;3.83;3.50;;;14.10;99.90;;;;;;5074932;28;20444;-75
2022/09/10 03:53:57;;;;;;;4.00;3.70;;;14.10;99.90;;;;;;5074726;28;20468;-75
2022/09/10 03:56:24;;;;;;;3.37;3.00;;;14.10;99.90;;;;;;5074719;28;20527;-75
2022/09/10 03:58:52;;;;;;;3.30;3.10;;;14.10;99.90;;;;;;5074688;28;20856;-75
2022/09/10 04:01:19;;;;;;;4.50;4.20;;;14.10;99.90;;;;;;5074321;28;20978;-75
2022/09/10 04:03:46;;;;;;;4.70;4.30;;;14.10;99.90;;;;;;5074431;28;20473;-75
2022/09/10 04:06:15;;;;;;;5.20;4.33;;;14.10;99.90;;;;;;5074450;28;20441;-75
2022/09/10 04:08:42;;;;;;;4.17;3.77;;;14.10;99.90;;;;;;5074468;28;20441;-75
2022/09/10 04:11:09;;;;;;;4.43;4.03;;;14.00;99.90;;;;;;5074480;28;21063;-75
2022/09/10 04:13:36;;;;;;;4.90;4.40;;;14.00;99.90;;;;;;5074329;28;20537;-75
2022/09/10 04:16:04;;;;;;;3.60;3.30;;;14.00;99.90;;;;;;5074215;28;20877;-75
2022/09/10 04:18:33;;;;;;;4.47;3.97;;;14.00;99.90;;;;;;5074431;28;20449;-74
2022/09/10 04:21:00;;;;;;;3.73;3.43;;;14.00;99.90;;;;;;5074157;28;20800;-74
2022/09/10 04:23:28;;;;;;;6.03;4.47;;;14.00;99.90;;;;;;5074128;28;20460;-76
2022/09/10 04:25:55;;;;;;;8.63;3.80;;;13.90;99.90;;;;;;5074233;28;20448;-75
2022/09/10 04:28:22;;;;;;;4.50;4.10;;;14.00;99.90;;;;;;5073840;28;20453;-75
2022/09/10 04:30:50;;;;;;;7.90;3.70;;;14.00;99.90;;;;;;5074124;28;20498;-75
2022/09/10 04:33:18;;;;;;;3.77;3.30;;;13.90;99.90;;;;;;5073912;28;20834;-75
2022/09/10 04:35:44;;;;;;;4.70;4.30;;;13.90;99.90;;;;;;5073964;28;20909;-75
2022/09/10 04:38:11;;;;;;;7.07;3.40;;;13.90;99.90;;;;;;5074343;28;20479;-75
2022/09/10 04:40:38;;;;;;;5.90;3.50;;;13.80;99.90;;;;;;5073575;28;20453;-75
2022/09/10 04:43:04;;;;;;;4.20;3.53;;;13.80;99.90;;;;;;5073625;28;20508;-75
2022/09/10 04:45:33;;;;;;;5.37;3.97;;;13.80;99.90;;;;;;5073572;28;21000;-75
2022/09/10 04:48:00;;;;;;;3.67;3.30;;;13.90;99.90;;;;;;5073517;28;20961;-75
2022/09/10 04:50:28;;;;;;;5.30;4.07;;;13.80;99.90;;;;;;5073415;28;20931;-75
2022/09/10 04:52:54;;;;;;;4.57;3.40;;;13.70;99.90;;;;;;5073126;28;20519;-75
2022/09/10 04:55:21;;;;;;;6.13;3.87;;;13.70;99.90;;;;;;5073348;28;20480;-74
2022/09/10 04:57:48;;;;;;;3.40;3.20;;;13.80;99.90;;;;;;5073618;28;20449;-74
2022/09/10 05:00:15;;;;;;;5.73;3.70;;;13.70;99.90;;;;;;5073511;28;20498;-75
2022/09/10 05:02:42;;;;;;;4.13;3.80;;;13.70;99.90;;;;;;5073576;28;20461;-74
2022/09/10 05:05:09;;;;;;;3.60;3.30;;;13.70;99.90;;;;;;5073580;28;20506;-74
2022/09/10 05:07:37;;;;;;;3.47;3.17;;;13.70;99.90;;;;;;5074027;28;20467;-74
2022/09/10 05:10:04;;;;;;;5.70;3.90;;;13.70;99.90;;;;;;5073346;28;20566;-74
2022/09/10 05:12:30;;;;;;;4.43;3.53;;;13.70;99.90;;;;;;5073232;28;20468;-75
2022/09/10 05:14:57;;;;;;;4.50;3.43;;;13.70;99.90;;;;;;5073008;28;20516;-75
2022/09/10 05:17:24;;;;;;;3.80;3.50;;;13.70;99.90;;;;;;5073416;28;20455;-74
2022/09/10 05:19:50;;;;;;;4.90;3.57;;;13.80;99.90;;;;;;5073301;28;20502;-73
2022/09/10 05:22:17;;;;;;;5.10;4.60;;;13.80;99.90;;;;;;5073229;28;20808;-74
2022/09/10 05:24:45;;;;;;;4.03;3.50;;;13.80;99.90;;;;;;5073248;28;20807;-74
2022/09/10 05:27:12;;;;;;;5.10;4.40;;;13.80;99.90;;;;;;5073771;28;20474;-74
2022/09/10 05:29:38;;;;;;;6.13;4.30;;;13.80;99.90;;;;;;5073219;28;20452;-74
2022/09/10 05:32:08;;;;;;;4.47;3.90;;;13.80;99.90;;;;;;5073156;28;20465;-74
2022/09/10 05:34:35;;;;;;;4.60;4.13;;;13.90;99.90;;;;;;5073217;28;20477;-75
2022/09/10 05:37:01;;;;;;;6.30;3.50;;;14.00;99.90;;;;;;5072976;28;20488;-75
2022/09/10 05:39:28;;;;;;;4.40;4.00;;;14.00;99.90;;;;;;5071984;28;20438;-74
2022/09/10 05:41:56;;;;;;;6.20;5.23;;;14.00;99.90;;;;;;5073777;28;20223;-74
2022/09/10 05:44:23;;;;;;;4.67;4.30;;;14.00;99.90;;;;;;5073876;28;20939;-75
2022/09/10 05:46:50;;;;;;;4.80;4.40;;;13.90;99.90;;;;;;5073511;28;20448;-75
2022/09/10 05:49:17;;;;;;;5.17;4.20;;;14.00;99.90;;;;;;5073603;28;20448;-75
2022/09/10 05:51:44;;;;;;;4.43;4.00;;;14.00;99.90;;;;;;5072753;28;20440;-75
2022/09/10 05:54:11;;;;;;;4.60;3.37;;;14.10;99.90;;;;;;5072986;28;20453;-75
2022/09/10 05:56:38;;;;;;;4.23;3.90;;;14.10;99.90;;;;;;5072860;28;20512;-75
2022/09/10 05:59:07;;;;;;;6.77;4.83;;;14.10;99.90;;;;;;5073011;28;20483;-74
2022/09/10 06:01:33;;;;;;;3.93;3.63;;;14.20;99.90;;;;;;5072964;28;20547;-75
2022/09/10 06:04:00;;;;;;;4.40;4.10;;;14.30;99.90;;;;;;5073821;28;20939;-75
2022/09/10 06:06:27;;;;;;;5.50;3.53;;;14.30;99.90;;;;;;5077382;28;20942;-75
2022/09/10 06:08:54;;;;;;;4.40;4.00;;;14.40;99.90;;;;;;5076862;28;20448;-74
2022/09/10 06:11:21;;;;;;;6.47;3.60;;;14.40;99.90;;;;;;5076593;28;20502;-74
2022/09/10 06:13:48;;;;;;;3.80;3.40;;;14.50;99.90;;;;;;5076812;28;20975;-74
2022/09/10 06:16:16;;;;;;;5.30;3.10;;;14.60;99.90;;;;;;5076685;28;20839;-74
2022/09/10 06:18:45;;;;;;;8.13;3.17;;;14.70;99.90;;;;;;5076554;28;20455;-74
2022/09/10 06:21:13;;;;;;;3.63;2.90;;;14.70;99.90;;;;;;5076533;28;20825;-74
2022/09/10 06:23:40;;;;;;;3.10;2.87;;;14.80;99.90;;;;;;5076396;28;20469;-75
2022/09/10 06:26:10;;;;;;;4.50;3.27;;;15.00;99.90;;;;;;5076521;28;20827;-74
2022/09/10 06:28:36;;;;;;;6.13;3.70;;;15.00;99.90;;;;;;5076045;28;20947;-74
2022/09/10 06:31:04;;;;;;;3.03;2.57;;;15.10;99.90;;;;;;5076369;28;20965;-75
2022/09/10 06:33:33;;;;;;;4.63;3.20;;;15.10;99.90;;;;;;5077238;28;20468;-74
2022/09/10 06:36:01;;;;;;;4.27;2.83;;;15.20;99.90;;;;;;5075859;28;20522;-74
2022/09/10 06:38:29;;;;;;;4.70;2.63;;;15.30;99.90;;;;;;5076085;28;20490;-75
2022/09/10 06:40:59;;;;;;;3.67;2.43;;;15.30;99.90;;;;;;5076672;28;20456;-75
2022/09/10 06:43:27;;;;;;;4.60;2.80;;;15.40;99.90;;;;;;5074831;28;20513;-74
2022/09/10 06:45:54;;;;;;;2.80;2.40;;;15.40;99.90;;;;;;5076134;28;20202;-75
2022/09/10 06:48:21;;;;;;;3.80;3.40;;;15.40;99.90;;;;;;5076004;28;20459;-74
2022/09/10 06:50:55;;;;;;;8.63;2.67;;;15.50;99.90;;;;;;5076017;28;20506;-75
2022/09/10 06:53:23;;;;;;;3.80;3.40;;;15.50;99.90;;;;;;5075333;28;20475;-75
2022/09/10 06:55:50;;;;;;;3.50;2.58;;;15.50;99.90;;;;;;5074787;28;20937;-74
2022/09/10 06:58:18;;;;;;;5.55;2.25;;;15.60;99.90;;;;;;5074810;28;20816;-74
2022/09/10 07:00:46;;;;;;;6.30;4.27;;;15.70;99.90;;;;;;5075989;28;20198;-74
2022/09/10 07:03:14;;;;;;;4.20;3.80;;;15.70;99.90;;;;;;5075694;28;20815;-74
2022/09/10 07:05:40;;;;;;;3.57;2.67;;;15.80;99.90;;;;;;5075756;28;20445;-75
2022/09/10 07:08:09;;;;;;;7.33;4.50;;;15.80;99.90;;;;;;5075785;28;20444;-75
2022/09/10 07:10:36;;;;;;;5.10;3.38;;;15.90;99.90;;;;;;5075066;28;20443;-75
2022/09/10 07:13:03;;;;;;;3.67;2.80;;;16.10;99.90;;;;;;5074883;28;20875;-74
2022/09/10 07:15:29;;;;;;;6.30;3.23;;;16.00;99.90;;;;;;5075148;28;20202;-75
2022/09/10 07:17:56;;;;;;;6.30;3.00;;;16.00;99.90;;;;;;5075245;28;20448;-75
2022/09/10 07:20:24;;;;;;;5.17;3.13;;;16.10;99.90;;;;;;5076243;28;20445;-75
2022/09/10 07:22:54;;;;;;;2.93;2.70;;;16.10;99.90;;;;;;5075408;28;20484;-75
2022/09/10 07:25:22;;;;;;;6.10;2.90;;;16.20;99.90;;;;;;5075439;28;20455;-74
2022/09/10 07:27:49;;;;;;;3.60;2.63;;;16.20;99.90;;;;;;5075008;28;20452;-74
2022/09/10 07:30:17;;;;;;;4.17;3.30;;;16.30;99.90;;;;;;5075224;28;20449;-74
2022/09/10 07:32:44;;;;;;;3.53;3.03;;;16.40;99.90;;;;;;5074927;28;20474;-75
2022/09/10 07:35:11;;;;;;;4.00;3.37;;;16.40;94.50;;;;;;5074784;28;20452;-75
2022/09/10 07:37:38;;;;;;;5.43;3.60;;;16.60;99.90;;;;;;5075040;28;20537;-74
2022/09/10 07:40:06;;;;;;;9.90;6.17;;;16.70;99.90;;;;;;5075021;28;20532;-75
2022/09/10 07:42:36;;;;;;;6.97;5.33;;;16.80;25.60;;;;;;5096134;22;20489;-77
2022/09/10 07:45:04;;;;;;;5.17;4.30;;;16.90;36.60;;;;;;5074830;28;20943;-78
2022/09/10 07:47:32;;;;;;;3.73;3.10;;;16.90;1.00;;;;;;5076336;28;20494;-76
2022/09/10 07:49:58;;;;;;;3.70;3.23;;;16.90;1.00;;;;;;5077294;28;20448;-78
2022/09/10 07:52:25;;;;;;;3.07;2.57;;;16.90;1.00;;;;;;5075277;28;20457;-77
2022/09/10 07:54:52;;;;;;;6.17;3.43;;;17.00;1.00;;;;;;5075227;28;20444;-78
2022/09/10 07:57:18;;;;;;;3.70;3.40;;;17.10;99.90;;;;;;5075228;28;20477;-77
2022/09/10 07:59:47;;;;;;;2.77;2.57;;;17.20;1.50;;;;;;5074880;28;20460;-77
2022/09/10 08:02:15;;;;;;;3.40;2.47;;;17.50;1.00;;;;;;5074254;28;20534;-78
2022/09/10 08:04:41;;;;;;;3.47;2.60;;;17.40;1.00;;;;;;5074608;28;20523;-77
2022/09/10 08:07:08;;;;;;;4.90;3.37;;;17.40;1.00;;;;;;5074788;28;20436;-77
2022/09/10 08:09:35;;;;;;;6.57;2.50;;;17.50;1.00;;;;;;5075368;28;20448;-78
2022/09/10 08:12:02;;;;;;;2.80;2.10;;;17.60;1.00;;;;;;5076922;28;20445;-78
2022/09/10 08:14:28;;;;;;;5.73;3.10;;;17.70;99.90;;;;;;5076274;28;20454;-78
2022/09/10 08:16:57;;;;;;;4.83;4.00;;;17.70;1.00;;;;;;5074617;28;20498;-78
2022/09/10 08:19:23;;;;;;;3.97;3.57;;;17.80;1.00;;;;;;5074775;28;20480;-78
2022/09/10 08:21:50;;;;;;;7.70;3.90;;;17.80;1.00;;;;;;5075552;28;20445;-77
2022/09/10 08:24:17;;;;;;;3.37;3.07;;;17.90;1.00;;;;;;5074976;28;20472;-79
2022/09/10 08:26:44;;;;;;;3.07;2.80;;;18.00;1.00;;;;;;5075449;28;20445;-77
2022/09/10 08:29:10;;;;;;;3.00;2.60;;;18.10;99.90;;;;;;5073421;28;20449;-78
2022/09/10 08:31:37;;;;;;;3.13;2.83;;;18.10;39.10;;;;;;5075424;28;20441;-78
2022/09/10 08:34:05;;;;;;;3.47;1.83;;;18.00;1.00;;;;;;5074284;28;20494;-77
2022/09/10 08:36:32;;;;;;;2.70;2.50;;;18.10;99.90;;;;;;5078999;28;20522;-77
2022/09/10 08:38:58;;;;;;;3.03;2.50;;;18.10;99.90;;;;;;5086208;28;20491;-78
2022/09/10 08:41:34;;;;;;;2.97;2.40;;;18.20;99.90;;;;;;5085485;28;20833;-78
2022/09/10 08:44:05;;;;;;;3.53;2.57;;;18.20;1.00;;;;;;5073991;28;20610;-78
2022/09/10 08:46:36;;;;;;;2.80;2.40;;;18.30;99.90;;;;;;5073945;28;20524;-77
2022/09/10 08:49:12;;;;;;;4.30;2.37;;;18.30;1.00;;;;;;5073812;28;20908;-77
2022/09/10 08:51:43;;;;;;;7.10;5.10;;;18.40;27.80;;;;;;5073835;28;20487;-78
2022/09/10 08:54:14;;;;;;;3.63;2.93;;;18.40;99.90;;;;;;5074910;28;20479;-77
2022/09/10 08:56:41;;;;;;;4.77;4.37;;;18.30;1.00;;;;;;5075361;28;20529;-79
2022/09/10 08:59:20;;;;;;;13.30;11.03;;;18.40;99.90;;;;;;5074516;28;20527;-77
2022/09/10 09:01:50;;;;;;;8.80;5.70;;;18.40;1.00;;;;;;5074570;28;20469;-79
2022/09/10 09:04:29;;;;;;;7.97;3.80;;;18.50;3.50;;;;;;5073630;28;20460;-78
2022/09/10 09:07:02;;;;;;;4.33;2.83;;;18.50;99.90;;;;;;5075328;28;20832;-78
2022/09/10 09:09:29;;;;;;;3.83;2.10;;;18.60;99.90;;;;;;5074995;28;20527;-78
2022/09/10 09:12:04;;;;;;;2.30;1.77;;;18.60;99.90;;;;;;5075722;28;20448;-77
2022/09/10 09:14:41;;;;;;;6.63;2.20;;;18.70;1.00;;;;;;5074894;28;20436;-76
2022/09/10 09:17:30;;;;;;;3.80;2.00;;;18.70;99.90;;;;;;5073408;28;21000;-77
2022/09/10 09:20:09;;;;;;;2.90;2.17;;;18.80;1.00;;;;;;5074006;28;20433;-77
2022/09/10 09:22:46;;;;;;;4.23;2.30;;;18.80;99.90;;;;;;5073509;28;20464;-77
2022/09/10 09:25:22;;;;;;;5.70;2.40;;;18.90;1.00;;;;;;5073780;28;20433;-77
2022/09/10 09:27:53;;;;;;;4.87;2.80;;;19.00;99.90;;;;;;5073437;28;20429;-77
2022/09/10 09:30:22;;;;;;;4.20;2.77;;;19.10;1.00;;;;;;5078192;28;20431;-78
2022/09/10 09:32:49;;;;;;;4.10;3.47;;;19.20;99.90;;;;;;5078247;28;20465;-77
2022/09/10 09:35:24;;;;;;;3.00;2.60;;;19.20;99.90;;;;;;5076320;28;20449;-77
2022/09/10 09:37:59;;;;;;;2.30;1.87;;;19.20;1.00;;;;;;5076499;28;21054;-76
2022/09/10 09:40:31;;;;;;;7.90;2.00;;;19.10;1.00;;;;;;5074473;28;20478;-77
2022/09/10 09:43:02;;;;;;;3.30;1.80;;;19.20;99.90;;;;;;5073726;28;20477;-77
2022/09/10 09:45:36;;;;;;;5.03;2.43;;;19.20;1.00;;;;;;5073021;28;20429;-77
2022/09/10 09:48:05;;;;;;;2.60;1.63;;;19.40;1.00;;;;;;5073131;28;20457;-77
2022/09/10 09:50:34;;;;;;;2.70;2.50;;;19.40;1.00;;;;;;5072847;28;20444;-78
2022/09/10 09:53:01;;;;;;;3.13;1.60;;;19.50;1.00;;;;;;5072959;28;20472;-78
2022/09/10 09:55:32;;;;;;;3.20;2.00;;;19.50;1.00;;;;;;5072778;28;20455;-77
2022/09/10 09:58:27;;;;;;;3.20;2.13;;;19.50;1.00;;;;;;5073220;28;20514;-77
2022/09/10 10:00:56;;;;;;;2.70;2.17;;;19.60;1.00;;;;;;5059123;28;20461;-77
2022/09/10 10:03:26;;;;;;;2.07;1.97;;;19.70;1.00;;;;;;5072790;28;20472;-77
2022/09/10 10:06:02;;;;;;;3.87;2.10;;;19.60;99.90;;;;;;5073023;28;20413;-77
2022/09/10 10:08:32;;;;;;;2.00;1.77;;;19.70;1.00;;;;;;5073384;28;20428;-77
2022/09/10 10:11:00;;;;;;;1.87;1.63;;;19.70;99.90;;;;;;5073265;28;20424;-77
2022/09/10 10:13:36;;;;;;;1.57;1.40;;;19.70;99.90;;;;;;5073254;28;20559;-77
2022/09/10 10:16:15;;;;;;;2.13;1.90;;;19.60;99.90;;;;;;5072878;28;20948;-77
2022/09/10 10:18:42;;;;;;;2.50;1.73;;;19.50;99.90;;;;;;5073332;28;20425;-77
2022/09/10 10:21:22;;;;;;;2.83;2.53;;;19.50;1.00;;;;;;5072481;28;21013;-78
2022/09/10 10:23:49;;;;;;;2.43;1.90;;;19.50;1.00;;;;;;5074966;28;20541;-77
2022/09/10 10:26:22;;;;;;;2.07;1.70;;;19.60;1.00;;;;;;5075735;28;20848;-77
2022/09/10 10:28:50;;;;;;;2.90;1.50;;;19.70;1.00;;;;;;5072796;28;20517;-77
2022/09/10 10:31:18;;;;;;;2.77;1.70;;;19.80;99.90;;;;;;5072959;28;20861;-77
2022/09/10 10:33:51;;;;;;;4.10;1.60;;;20.00;99.90;;;;;;5072719;28;20468;-77
2022/09/10 10:36:27;;;;;;;1.90;1.57;;;20.10;99.90;;;;;;5072683;28;20431;-77
2022/09/10 10:38:58;;;;;;;2.10;1.43;;;20.20;99.90;;;;;;5073853;28;20429;-78
2022/09/10 10:41:49;;;;;;;1.90;1.80;;;20.40;99.90;;;;;;5074105;28;20436;-78
2022/09/10 10:44:28;;;;;;;2.80;1.30;;;20.50;99.90;;;;;;5072424;28;20994;-76
2022/09/10 10:47:18;;;;;;;2.20;2.00;;;20.60;99.90;;;;;;5073361;28;20838;-78
2022/09/10 10:49:56;;;;;;;3.97;2.47;;;20.80;99.90;;;;;;5073124;28;20440;-76
2022/09/10 10:52:32;;;;;;;5.37;3.77;;;21.00;99.90;;;;;;5075038;28;20855;-77
2022/09/10 10:55:12;;;;;;;3.57;2.30;;;20.60;25.70;;;;;;5080177;28;20425;-77
2022/09/10 10:57:57;;;;;;;3.00;2.40;;;20.50;49.00;;;;;;5083910;28;20464;-78
2022/09/10 11:00:24;;;;;;;3.57;3.27;;;20.50;31.30;;;;;;5078536;28;20432;-78
2022/09/10 11:03:00;;;;;;;5.83;2.83;;;20.60;99.90;;;;;;5079809;28;20500;-77
2022/09/10 11:05:32;;;;;;;10.23;5.60;;;20.60;99.90;;;;;;5076435;28;20425;-77
2022/09/10 11:08:13;;;;;;;6.53;5.83;;;20.40;1.00;;;;;;5076285;28;20437;-78
2022/09/10 11:10:44;;;;;;;2.20;1.83;;;20.40;99.90;;;;;;5076309;28;20798;-77
2022/09/10 11:13:18;;;;;;;5.20;2.57;;;20.30;99.90;;;;;;5076420;28;21050;-78
2022/09/10 11:15:51;;;;;;;18.30;12.10;;;20.20;99.90;;;;;;5076085;28;20467;-78
2022/09/10 11:18:22;;;;;;;6.97;5.67;;;20.20;99.90;;;;;;5076100;28;20845;-77
2022/09/10 11:20:58;;;;;;;4.40;2.40;;;20.20;99.90;;;;;;5075454;28;20479;-77
2022/09/10 11:23:32;;;;;;;5.17;2.77;;;20.20;99.90;;;;;;5075500;28;20522;-77
2022/09/10 11:26:03;;;;;;;2.47;1.70;;;20.20;99.90;;;;;;5075526;28;20858;-77
2022/09/10 11:28:33;;;;;;;3.90;2.33;;;20.20;99.90;;;;;;5075476;28;20425;-77
2022/09/10 11:31:08;;;;;;;3.57;1.33;;;20.20;99.90;;;;;;5076460;28;20440;-77
2022/09/10 11:33:41;;;;;;;2.57;1.83;;;20.20;99.70;;;;;;5077622;28;20476;-76
2022/09/10 11:36:12;;;;;;;1.20;0.90;;;20.20;99.90;;;;;;5081013;28;20943;-76
2022/09/10 11:38:47;;;;;;;3.03;2.43;;;20.30;14.10;;;;;;5076237;28;20820;-76
2022/09/10 11:41:20;;;;;;;2.60;1.53;;;20.40;52.40;;;;;;5075555;28;20531;-78
2022/09/10 11:43:52;;;;;;;1.50;1.40;;;20.40;1.00;;;;;;5075378;28;20485;-79
2022/09/10 11:46:24;;;;;;;2.53;2.10;;;20.40;1.00;;;;;;5076371;28;20437;-78
2022/09/10 11:48:55;;;;;;;3.90;1.40;;;20.30;1.00;;;;;;5075661;28;20463;-77
2022/09/10 11:51:26;;;;;;;1.90;1.70;;;20.30;1.00;;;;;;5075871;28;20947;-77
2022/09/10 11:53:55;;;;;;;3.63;1.67;;;20.20;99.90;;;;;;5075149;28;20469;-77
2022/09/10 11:56:42;;;;;;;2.43;2.10;;;20.20;99.90;;;;;;5075203;28;20859;-78
2022/09/10 11:59:23;;;;;;;4.03;2.40;;;20.10;54.80;;;;;;5064694;28;20456;-77
2022/09/10 12:02:17;;;;;;;2.33;1.30;;;20.10;99.90;;;;;;5075358;28;20441;-77
2022/09/10 12:04:50;;;;;;;3.30;2.10;;;20.00;99.90;;;;;;5074862;28;20437;-78
2022/09/10 12:07:28;;;;;;;3.37;3.07;;;20.00;99.90;;;;;;5074346;28;20421;-77
2022/09/10 12:10:08;;;;;;;3.77;3.40;;;20.00;99.90;;;;;;5074662;28;20968;-78
2022/09/10 12:12:41;;;;;;;2.20;1.50;;;20.00;99.90;;;;;;5075432;28;20526;-78
2022/09/10 12:15:11;;;;;;;1.73;1.63;;;20.00;99.90;;;;;;5074758;28;20843;-77
2022/09/10 12:17:41;;;;;;;4.03;2.07;;;20.00;99.90;;;;;;5074246;28;20534;-78
2022/09/10 12:20:17;;;;;;;1.50;1.40;;;20.00;99.90;;;;;;5074337;28;20428;-77
2022/09/10 12:22:44;;;;;;;3.00;2.50;;;20.00;99.90;;;;;;5074328;28;20468;-77
2022/09/10 12:25:26;;;;;;;2.30;1.67;;;20.10;99.90;;;;;;5074633;28;20448;-78
2022/09/10 12:27:55;;;;;;;4.30;3.20;;;20.20;1.00;;;;;;5074598;28;20429;-76
2022/09/10 12:30:59;;;;;;;3.87;3.40;;;20.20;1.00;;;;;;5075617;28;20448;-77
2022/09/10 12:33:58;;;;;;;3.47;2.63;;;20.50;99.90;;;;;;5075446;28;20884;-76
2022/09/10 12:37:14;;;;;;;6.60;3.77;;;20.80;99.90;;;;;;5073889;28;20445;-77
2022/09/10 12:39:41;;;;;;;5.80;2.90;;;21.20;1.00;;;;;;5073810;28;20452;-77
2022/09/10 12:42:30;;;;;;;4.30;3.17;;;21.30;99.90;;;;;;5074730;28;20452;-78
2022/09/10 12:44:57;;;;;;;3.37;2.40;;;21.50;93.80;;;;;;5074237;28;20479;-78
2022/09/10 12:47:49;;;;;;;3.27;2.97;;;21.50;1.00;;;;;;5074012;28;20815;-77
2022/09/10 12:50:32;;;;;;;6.50;2.53;;;21.50;60.60;;;;;;5076054;28;20441;-78
2022/09/10 12:53:34;;;;;;;5.07;3.60;;;21.40;99.90;;;;;;5071992;28;20999;-77
2022/09/10 12:56:12;;;;;;;4.40;3.90;;;21.30;99.90;;;;;;5075004;28;20433;-78
2022/09/10 12:58:55;;;;;;;1.67;1.57;;;21.20;1.00;;;;;;5074926;28;20531;-78
2022/09/10 13:01:37;;;;;;;4.33;2.00;;;21.10;71.50;;;;;;5074835;28;20468;-76
2022/09/10 13:04:04;;;;;;;2.20;1.93;;;21.10;99.90;;;;;;5073580;28;20553;-78
2022/09/10 13:06:37;;;;;;;8.30;7.33;;;21.00;99.90;;;;;;5074435;28;20456;-77